首页
METAR-TAF:

METAR-TAF

机场 :

朱麗安娜公主國際機場

荷屬聖馬丁, 荷属安的列斯

纬度: 18-03N, 经度: 063-07W, 海拔: 4米

当前天气观测

该预报发布于45分钟前的09:00 UTC
风速9节,风向东北
温度 27°C
湿度 79%
气压 1013 hPa
能见度10公里或以上
少量云层高于1600英尺

METAR: TNCM 150900Z 04009KT 9999 FEW016 27/23 Q1013

时间: 05:45 (09:45 UTC)

预报

该预报发布于4小时和16分钟前的05:29 UTC
预报有效从15日的 06点(UTC)到 16日的 06点(UTC)
风速8节,风向东北
能見度: 10公里
少量云层高于1600英尺
附近有阵雨
从 15日的 1400点(UTC)
风速10节,风向东转东北
能見度: 10公里
散云层高于2000英尺
附近有阵雨
从 15日的 2100点(UTC)
风速7节,风向东北
能見度: 10公里
少量云层高于1800英尺
附近有阵雨

TAF: TNCM 150529Z 1506/1606 04008KT P6SM VCSH FEW016 FM151400 06010KT P6SM VCSH SCT020 FM152100 05007KT P6SM VCSH FEW018

超过4000个机场的气象观测和天气预报(METAR&TAF报告)。

可查询的气象台以黄色和红色小点在地图上表示。

将鼠标移到小点上方,可查看气象台名称。

然后点击查看天气观测和预报。

如需切换地图:点击带黑十字的绿色按钮放大地图;点击带横线的绿色按钮缩小地图;或者点击绿色箭头查看邻近地区的地图。


METAR-TAF: